Time;durP1;ratioP1;P1;durP2;ratioP2;P2;SDS_P1;SDS_P2;PMS_P1;PMS_P2;Temp;Humidity;BMP_temperature;BMP_pressure;BME280_temperature;BME280_humidity;BME280_pressure;Samples;Min_cycle;Max_cycle;Signal;HPM_P1;HPM_P2
2021/12/10 00:01:55;;;;;;;15.10;7.45;;;4.30;99.90;;;;;;5092722;28;20028;-80
2021/12/10 00:04:29;;;;;;;21.20;7.80;;;4.20;99.90;;;;;;5092316;28;20532;-80
2021/12/10 00:06:59;;;;;;;17.55;6.47;;;4.20;99.90;;;;;;5082716;28;20467;-80
2021/12/10 00:09:31;;;;;;;15.18;6.00;;;4.20;99.90;;;;;;5076108;28;20046;-80
2021/12/10 00:12:06;;;;;;;11.50;5.22;;;4.20;99.90;;;;;;5093545;28;20032;-80
2021/12/10 00:14:34;;;;;;;11.13;5.60;;;4.20;99.90;;;;;;5081712;28;20024;-80
2021/12/10 00:17:01;;;;;;;17.38;6.95;;;4.20;99.90;;;;;;5073764;28;20028;-80
2021/12/10 00:19:34;;;;;;;14.82;5.60;;;4.10;99.90;;;;;;5063586;28;20028;-80
2021/12/10 00:22:08;;;;;;;23.55;5.50;;;4.20;99.90;;;;;;5092222;28;20032;-80
2021/12/10 00:24:34;;;;;;;14.10;5.88;;;4.20;99.90;;;;;;5092150;28;20032;-80
2021/12/10 00:27:04;;;;;;;15.20;5.78;;;4.20;99.90;;;;;;5093354;28;20027;-79
2021/12/10 00:29:30;;;;;;;14.73;5.43;;;4.20;99.90;;;;;;5092181;28;20111;-80
2021/12/10 00:32:03;;;;;;;9.98;4.70;;;4.10;99.90;;;;;;5091892;28;20107;-79
2021/12/10 00:34:55;;;;;;;8.82;4.15;;;4.10;99.90;;;;;;5092392;28;20031;-80
2021/12/10 00:37:23;;;;;;;19.77;5.10;;;4.20;99.90;;;;;;5074098;28;20103;-80
2021/12/10 00:39:53;;;;;;;20.38;4.82;;;4.10;99.90;;;;;;5063711;28;20020;-80
2021/12/10 00:42:23;;;;;;;11.20;4.72;;;4.10;99.90;;;;;;5091841;28;20031;-80
2021/12/10 00:44:49;;;;;;;11.70;4.03;;;4.10;99.90;;;;;;5089117;28;20035;-80
2021/12/10 00:47:15;;;;;;;16.92;4.35;;;4.10;99.90;;;;;;5073176;28;20032;-79
2021/12/10 00:49:41;;;;;;;14.73;3.90;;;4.10;99.90;;;;;;5039296;28;20039;-80
2021/12/10 00:52:09;;;;;;;11.60;3.85;;;4.10;99.90;;;;;;5055050;28;20103;-80
2021/12/10 00:54:35;;;;;;;9.90;4.30;;;4.10;99.90;;;;;;5090888;28;20107;-80
2021/12/10 00:57:02;;;;;;;12.00;4.00;;;4.10;99.90;;;;;;5087891;28;20028;-80
2021/12/10 00:59:28;;;;;;;12.73;4.20;;;4.10;99.90;;;;;;5087093;28;20038;-79
2021/12/10 01:01:54;;;;;;;13.57;3.80;;;4.10;99.90;;;;;;5075101;28;20020;-79
2021/12/10 01:04:31;;;;;;;7.20;3.63;;;4.10;99.90;;;;;;5062401;28;20035;-80
2021/12/10 01:06:59;;;;;;;9.65;3.75;;;4.10;99.90;;;;;;5086425;28;20020;-79
2021/12/10 01:09:30;;;;;;;9.95;3.20;;;4.10;99.90;;;;;;5089459;28;20087;-80
2021/12/10 01:12:13;;;;;;;11.52;4.00;;;4.10;99.90;;;;;;5088849;28;20027;-80
2021/12/10 01:15:02;;;;;;;10.80;3.70;;;4.10;99.90;;;;;;5094646;28;20020;-80
2021/12/10 01:28:46;;;;;;;13.07;5.43;;;4.00;99.90;;;;;;5107616;28;20714;-80
2021/12/10 01:31:12;;;;;;;8.93;5.60;;;3.90;99.90;;;;;;5094737;28;20181;-80
2021/12/10 01:33:39;;;;;;;12.40;5.72;;;4.00;99.90;;;;;;5058013;28;20028;-80
2021/12/10 01:36:07;;;;;;;9.93;5.15;;;4.00;99.90;;;;;;5093831;28;20034;-80
2021/12/10 01:38:35;;;;;;;9.75;4.80;;;4.00;99.90;;;;;;5094034;28;20028;-79
2021/12/10 01:41:02;;;;;;;11.27;4.95;;;3.90;99.90;;;;;;5082626;28;20035;-80
2021/12/10 01:43:33;;;;;;;14.63;4.82;;;4.00;99.90;;;;;;5061032;28;20373;-80
2021/12/10 01:46:07;;;;;;;9.18;4.28;;;4.00;99.90;;;;;;5085301;28;20081;-80
2021/12/10 01:48:37;;;;;;;12.43;3.95;;;3.90;99.90;;;;;;5074465;28;20028;-80
2021/12/10 01:51:06;;;;;;;10.98;3.55;;;3.90;99.90;;;;;;5084737;28;20032;-79
2021/12/10 01:53:35;;;;;;;14.18;4.15;;;3.90;99.90;;;;;;5094746;28;20039;-80
2021/12/10 01:56:05;;;;;;;11.70;3.80;;;3.90;99.90;;;;;;5094334;28;20027;-80
2021/12/10 01:58:32;;;;;;;7.07;3.13;;;3.90;99.90;;;;;;5113044;28;20278;-79
2021/12/10 02:01:09;;;;;;;10.23;3.60;;;3.90;99.90;;;;;;5074580;28;20066;-80
2021/12/10 02:03:37;;;;;;;8.27;3.40;;;3.90;99.90;;;;;;5090965;28;20027;-80
2021/12/10 02:06:04;;;;;;;8.27;3.10;;;3.90;99.90;;;;;;5116556;28;20030;-80
2021/12/10 02:08:30;;;;;;;10.40;3.22;;;3.80;99.90;;;;;;5116626;28;20031;-80
2021/12/10 02:10:55;;;;;;;14.27;3.58;;;3.80;99.90;;;;;;5081200;28;20384;-79
2021/12/10 02:13:21;;;;;;;8.20;3.50;;;3.80;99.90;;;;;;5079503;28;20088;-79
2021/12/10 02:15:47;;;;;;;6.55;3.00;;;3.80;99.90;;;;;;5077942;28;20027;-80
2021/12/10 02:18:13;;;;;;;8.60;3.53;;;3.80;99.90;;;;;;5083537;28;20060;-80
2021/12/10 02:21:14;;;;;;;11.80;3.20;;;3.80;99.90;;;;;;5061629;28;20028;-80
2021/12/10 02:23:46;;;;;;;7.45;2.70;;;3.80;99.90;;;;;;5096108;28;20043;-79
2021/12/10 02:26:14;;;;;;;6.82;2.90;;;3.70;99.90;;;;;;5078040;28;20492;-80
2021/12/10 02:28:41;;;;;;;6.43;2.60;;;3.80;99.90;;;;;;5082501;28;20166;-79
2021/12/10 02:31:08;;;;;;;12.65;3.10;;;3.70;99.90;;;;;;5063717;28;20077;-80
2021/12/10 02:33:35;;;;;;;8.70;2.67;;;3.70;99.90;;;;;;5073644;28;20039;-80
2021/12/10 02:36:01;;;;;;;8.65;2.42;;;3.70;99.90;;;;;;5077828;28;20092;-80
2021/12/10 02:38:27;;;;;;;9.50;3.03;;;3.70;99.90;;;;;;5077905;28;20388;-79
2021/12/10 02:40:54;;;;;;;9.27;2.72;;;3.70;99.90;;;;;;5097378;28;20473;-79
2021/12/10 02:43:22;;;;;;;12.52;2.90;;;3.70;99.90;;;;;;5090149;28;20388;-80
2021/12/10 02:45:52;;;;;;;9.77;2.72;;;3.70;99.90;;;;;;5087707;28;20050;-80
2021/12/10 02:48:18;;;;;;;6.28;1.98;;;3.70;99.90;;;;;;5116444;28;20459;-80
2021/12/10 02:50:45;;;;;;;10.07;2.63;;;3.70;99.90;;;;;;5060039;28;20062;-79
2021/12/10 02:53:15;;;;;;;8.00;2.78;;;3.60;99.90;;;;;;5060775;28;20087;-80
2021/12/10 02:55:42;;;;;;;10.98;2.13;;;3.60;99.90;;;;;;5083311;28;20023;-79
2021/12/10 02:58:12;;;;;;;5.28;2.35;;;3.60;99.80;;;;;;5080859;28;20024;-80
2021/12/10 03:00:59;;;;;;;7.47;2.03;;;3.70;99.90;;;;;;5092022;28;20036;-80
2021/12/10 03:03:26;;;;;;;6.97;2.65;;;3.60;99.90;;;;;;5115405;28;20035;-80
2021/12/10 03:05:54;;;;;;;11.40;2.70;;;3.60;99.80;;;;;;5096039;28;20100;-80
2021/12/10 03:08:19;;;;;;;9.88;2.63;;;3.60;99.80;;;;;;5096839;28;20028;-79
2021/12/10 03:10:46;;;;;;;10.68;2.60;;;3.60;99.80;;;;;;5059197;28;20366;-80
2021/12/10 03:13:12;;;;;;;11.25;3.15;;;3.60;99.90;;;;;;5077123;28;20135;-79
2021/12/10 03:15:39;;;;;;;9.50;2.58;;;3.60;99.70;;;;;;5096657;28;20024;-80
2021/12/10 03:18:08;;;;;;;9.13;3.03;;;3.60;99.60;;;;;;5080080;28;20036;-80
2021/12/10 03:20:34;;;;;;;;;;;3.60;99.60;;;;;;5094633;28;20103;-80
2021/12/10 03:23:01;;;;;;;11.35;2.75;;;3.60;99.60;;;;;;5065647;28;20016;-80
2021/12/10 03:25:28;;;;;;;13.05;2.50;;;3.50;99.70;;;;;;5096315;28;20073;-80
2021/12/10 03:27:54;;;;;;;10.43;2.65;;;3.50;99.70;;;;;;5080593;28;20048;-79
2021/12/10 03:30:23;;;;;;;9.73;2.72;;;3.50;99.70;;;;;;5076553;28;20036;-79
2021/12/10 03:32:49;;;;;;;15.15;3.08;;;3.50;99.60;;;;;;5094104;28;20028;-80
2021/12/10 03:35:22;;;;;;;10.27;2.65;;;3.50;99.90;;;;;;5096116;28;20051;-80
2021/12/10 03:37:49;;;;;;;11.25;2.60;;;3.50;99.60;;;;;;5095541;28;20464;-80
2021/12/10 03:40:17;;;;;;;10.70;2.50;;;3.60;99.60;;;;;;5070682;28;20036;-79
2021/12/10 03:42:43;;;;;;;14.48;2.75;;;3.50;99.60;;;;;;5079919;28;20073;-79
2021/12/10 03:45:10;;;;;;;7.72;1.95;;;3.50;99.50;;;;;;5066912;28;20020;-80
2021/12/10 03:47:37;;;;;;;7.70;2.03;;;3.50;99.50;;;;;;5076878;28;20036;-80
2021/12/10 03:50:05;;;;;;;12.38;2.63;;;3.50;99.50;;;;;;5086242;28;20024;-80
2021/12/10 03:52:30;;;;;;;11.50;1.95;;;3.50;99.50;;;;;;5092224;28;20054;-80
2021/12/10 03:54:58;;;;;;;10.90;2.03;;;3.50;99.50;;;;;;5093282;28;20031;-80
2021/12/10 03:57:24;;;;;;;8.45;2.20;;;3.50;99.50;;;;;;5089608;28;20032;-80
2021/12/10 03:59:49;;;;;;;6.68;1.73;;;3.50;99.70;;;;;;5095651;28;20043;-80
2021/12/10 04:02:15;;;;;;;9.95;2.35;;;3.50;99.40;;;;;;5101659;28;20036;-80
2021/12/10 04:04:46;;;;;;;13.70;2.33;;;3.50;99.40;;;;;;5095926;28;20035;-80
2021/12/10 04:07:26;;;;;;;7.93;2.17;;;3.50;99.40;;;;;;5096125;28;20036;-80
2021/12/10 04:09:53;;;;;;;15.93;2.35;;;3.50;99.40;;;;;;5081059;28;20028;-79
2021/12/10 04:12:19;;;;;;;8.98;2.15;;;3.50;99.30;;;;;;5059143;28;20039;-80
2021/12/10 04:14:47;;;;;;;10.15;2.05;;;3.50;99.30;;;;;;5087813;28;20030;-79
2021/12/10 04:17:13;;;;;;;11.40;1.67;;;3.50;99.30;;;;;;5096175;28;20027;-80
2021/12/10 04:19:39;;;;;;;7.38;1.77;;;3.50;99.30;;;;;;5107558;28;20077;-80
2021/12/10 04:22:07;;;;;;;6.90;1.98;;;3.50;99.30;;;;;;5062403;28;20122;-79
2021/12/10 04:24:36;;;;;;;6.80;1.73;;;3.50;99.30;;;;;;5095730;28;20432;-79
2021/12/10 04:27:04;;;;;;;7.80;1.93;;;3.50;99.30;;;;;;5094410;28;20476;-80
2021/12/10 04:29:30;;;;;;;6.57;1.70;;;3.50;99.30;;;;;;5078663;28;20750;-80
2021/12/10 04:31:57;;;;;;;8.75;1.83;;;3.50;99.60;;;;;;5099583;28;20027;-80
2021/12/10 04:34:24;;;;;;;10.50;1.80;;;3.50;99.40;;;;;;5056667;28;20020;-79
2021/12/10 04:36:54;;;;;;;10.32;1.70;;;3.50;99.40;;;;;;5042494;28;20544;-79
2021/12/10 04:39:20;;;;;;;11.48;1.95;;;3.50;99.40;;;;;;5080635;28;20039;-79
2021/12/10 04:41:46;;;;;;;9.65;1.70;;;3.50;99.40;;;;;;5091955;28;20024;-79
2021/12/10 04:44:12;;;;;;;13.15;1.52;;;3.50;99.30;;;;;;5059417;28;20025;-80
2021/12/10 04:46:38;;;;;;;6.47;1.60;;;3.60;99.40;;;;;;5058965;28;20035;-80
2021/12/10 04:49:12;;;;;;;6.50;1.25;;;3.60;99.40;;;;;;5058455;28;20032;-80
2021/12/10 04:51:40;;;;;;;12.32;1.70;;;3.60;99.40;;;;;;5091586;28;21902;-80
2021/12/10 04:54:08;;;;;;;12.05;1.90;;;3.60;99.40;;;;;;5095231;28;20073;-80
2021/12/10 04:56:35;;;;;;;8.13;1.75;;;3.60;99.40;;;;;;5095394;28;20027;-80
2021/12/10 04:59:03;;;;;;;5.82;1.30;;;3.60;99.30;;;;;;5075159;28;20044;-79
2021/12/10 05:01:29;;;;;;;8.07;1.52;;;3.70;99.30;;;;;;5075323;28;20025;-80
2021/12/10 05:03:55;;;;;;;6.13;1.25;;;3.70;99.30;;;;;;5073856;28;20020;-79
2021/12/10 05:06:21;;;;;;;13.85;1.80;;;3.70;99.30;;;;;;5071691;28;20021;-79
2021/12/10 05:08:47;;;;;;;7.65;1.25;;;3.70;99.30;;;;;;5065672;28;20028;-80
2021/12/10 05:11:13;;;;;;;6.95;1.40;;;3.70;99.20;;;;;;5088844;28;20047;-79
2021/12/10 05:13:42;;;;;;;10.88;1.52;;;3.80;99.20;;;;;;5055125;28;20066;-80
2021/12/10 05:16:08;;;;;;;11.18;1.40;;;3.80;99.20;;;;;;5087093;28;20024;-80
2021/12/10 05:18:37;;;;;;;13.10;1.70;;;3.90;99.20;;;;;;5058248;28;20036;-80
2021/12/10 05:21:05;;;;;;;17.25;1.40;;;3.90;99.10;;;;;;5089784;28;20032;-79
2021/12/10 05:23:31;;;;;;;9.13;1.45;;;3.90;99.10;;;;;;5070978;28;20384;-79
2021/12/10 05:25:57;;;;;;;11.40;1.67;;;3.90;99.10;;;;;;5073262;28;20088;-79
2021/12/10 05:28:23;;;;;;;6.93;1.38;;;3.90;99.10;;;;;;5038517;28;20028;-78
2021/12/10 05:30:54;;;;;;;13.77;1.70;;;3.90;99.20;;;;;;5054866;28;20123;-80
2021/12/10 05:33:20;;;;;;;6.20;1.27;;;4.00;99.20;;;;;;5089026;28;20023;-79
2021/12/10 05:35:47;;;;;;;10.27;1.90;;;3.90;99.30;;;;;;5063761;28;20362;-80
2021/12/10 05:38:14;;;;;;;10.95;1.55;;;4.00;99.70;;;;;;5075736;28;20028;-80
2021/12/10 05:40:40;;;;;;;10.55;1.60;;;4.00;99.50;;;;;;5088649;28;20070;-79
2021/12/10 05:43:06;;;;;;;12.55;1.67;;;3.90;99.50;;;;;;5062782;28;20032;-80
2021/12/10 05:45:32;;;;;;;9.48;1.77;;;4.00;99.60;;;;;;5075724;28;20073;-80
2021/12/10 05:47:58;;;;;;;8.85;1.48;;;3.90;99.70;;;;;;5065352;28;20530;-79
2021/12/10 05:50:26;;;;;;;13.98;2.20;;;3.90;99.70;;;;;;5060019;28;20039;-80
2021/12/10 05:52:52;;;;;;;10.63;1.90;;;4.00;99.80;;;;;;5092348;28;20033;-80
2021/12/10 05:55:19;;;;;;;13.70;1.75;;;4.00;99.90;;;;;;5067777;28;20036;-79
2021/12/10 05:57:45;;;;;;;11.45;1.67;;;4.00;99.90;;;;;;5062203;28;20030;-79
2021/12/10 06:00:23;;;;;;;13.50;1.73;;;4.00;99.90;;;;;;5078468;28;20036;-79
2021/12/10 06:02:49;;;;;;;11.32;1.70;;;4.00;99.90;;;;;;5083571;28;20100;-80
2021/12/10 06:05:25;;;;;;;13.82;1.73;;;4.00;99.80;;;;;;5067265;28;20124;-79
2021/12/10 06:07:51;;;;;;;8.77;1.40;;;4.00;99.80;;;;;;5095380;28;20032;-79
2021/12/10 06:10:20;;;;;;;8.80;1.58;;;4.00;99.70;;;;;;5095332;28;20392;-79
2021/12/10 06:12:47;;;;;;;7.95;1.40;;;4.00;99.70;;;;;;5095179;28;20082;-80
2021/12/10 06:15:16;;;;;;;5.63;1.65;;;4.10;99.70;;;;;;5078253;28;20477;-79
2021/12/10 06:17:42;;;;;;;16.17;1.63;;;4.10;99.70;;;;;;5094938;28;20074;-79
2021/12/10 06:20:10;;;;;;;9.48;1.75;;;4.10;99.50;;;;;;5058296;28;20036;-80
2021/12/10 06:22:36;;;;;;;13.95;1.85;;;4.10;99.40;;;;;;5074618;28;20493;-80
2021/12/10 06:25:04;;;;;;;10.10;1.70;;;4.20;99.40;;;;;;5074663;28;20047;-80
2021/12/10 06:27:29;;;;;;;9.35;1.60;;;4.10;99.20;;;;;;5078291;28;20024;-80
2021/12/10 06:29:57;;;;;;;8.70;1.45;;;4.10;99.40;;;;;;5057712;28;20105;-80
2021/12/10 06:32:23;;;;;;;9.85;1.70;;;4.10;99.20;;;;;;5073701;28;20496;-80
2021/12/10 06:34:48;;;;;;;13.77;1.58;;;4.20;99.10;;;;;;5062962;28;20069;-80
2021/12/10 06:37:14;;;;;;;12.32;1.63;;;4.20;99.00;;;;;;5076329;28;20028;-80
2021/12/10 06:39:40;;;;;;;9.57;1.70;;;4.20;98.90;;;;;;5061782;28;20039;-80
2021/12/10 06:42:06;;;;;;;7.30;1.52;;;4.20;98.80;;;;;;5041313;28;20115;-80
2021/12/10 06:44:31;;;;;;;10.65;1.58;;;4.20;98.70;;;;;;5074036;28;20412;-80
2021/12/10 06:46:57;;;;;;;9.32;1.85;;;4.20;98.60;;;;;;5074599;28;20099;-80
2021/12/10 06:49:23;;;;;;;13.40;1.70;;;4.30;98.60;;;;;;5074225;28;20035;-80
2021/12/10 06:51:49;;;;;;;11.10;2.03;;;4.30;98.50;;;;;;5086337;28;20020;-80
2021/12/10 06:54:15;;;;;;;11.70;1.92;;;4.20;98.40;;;;;;5077332;28;20411;-82
2021/12/10 06:56:41;;;;;;;10.43;1.60;;;4.30;98.30;;;;;;5067521;28;20028;-82
2021/12/10 06:59:09;;;;;;;11.88;1.75;;;4.30;98.30;;;;;;5064697;28;20131;-82
2021/12/10 07:01:39;;;;;;;9.23;1.85;;;4.20;98.30;;;;;;5072725;28;20071;-82
2021/12/10 07:04:09;;;;;;;10.23;1.85;;;4.30;98.20;;;;;;5071868;28;20029;-82
2021/12/10 07:06:37;;;;;;;11.13;1.48;;;4.30;98.10;;;;;;5056280;28;20035;-82
2021/12/10 07:09:09;;;;;;;15.90;1.80;;;4.30;98.00;;;;;;5073767;28;20017;-82
2021/12/10 07:11:35;;;;;;;7.95;2.30;;;4.30;98.00;;;;;;5075256;28;20178;-82
2021/12/10 07:14:01;;;;;;;10.20;1.88;;;4.30;98.00;;;;;;5057390;28;20025;-82
2021/12/10 07:16:29;;;;;;;10.55;1.90;;;4.40;98.00;;;;;;5057429;28;20100;-82
2021/12/10 07:18:58;;;;;;;8.57;2.10;;;4.30;98.00;;;;;;5073556;28;20024;-82
2021/12/10 07:21:26;;;;;;;11.15;1.80;;;4.40;98.00;;;;;;5074900;28;20473;-81
2021/12/10 07:23:52;;;;;;;11.23;2.50;;;4.30;98.00;;;;;;5053387;28;20040;-82
2021/12/10 07:26:18;;;;;;;10.27;2.03;;;4.30;97.90;;;;;;5073860;28;20060;-82
2021/12/10 07:28:44;;;;;;;11.82;2.30;;;4.30;97.90;;;;;;5054024;28;20059;-82
2021/12/10 07:31:10;;;;;;;9.52;2.83;;;4.30;97.90;;;;;;5056445;28;20027;-82
2021/12/10 07:33:37;;;;;;;13.55;2.60;;;4.30;97.90;;;;;;5073254;28;20139;-82
2021/12/10 07:36:04;;;;;;;19.02;3.85;;;4.30;97.90;;;;;;5044222;28;20393;-83
2021/12/10 07:38:30;;;;;;;11.98;3.42;;;4.30;98.00;;;;;;5072654;28;20433;-82
2021/12/10 07:40:56;;;;;;;9.20;3.10;;;4.30;97.90;;;;;;5072606;28;20020;-84
2021/12/10 07:43:32;;;;;;;16.98;4.07;;;4.30;97.80;;;;;;5056646;28;20041;-83
2021/12/10 07:45:57;;;;;;;14.38;3.78;;;4.30;97.80;;;;;;5066363;28;20036;-83
2021/12/10 07:48:27;;;;;;;11.48;3.22;;;4.30;97.70;;;;;;5063511;28;20040;-82
2021/12/10 07:51:01;;;;;;;16.20;3.90;;;4.30;97.70;;;;;;5056583;28;20036;-83
2021/12/10 07:53:30;;;;;;;13.57;3.80;;;4.30;97.80;;;;;;5072741;28;20037;-84
2021/12/10 07:56:00;;;;;;;18.25;3.72;;;4.30;97.70;;;;;;5066275;28;20021;-83
2021/12/10 07:58:26;;;;;;;15.43;3.58;;;4.30;97.70;;;;;;5060706;28;20033;-83
2021/12/10 08:00:52;;;;;;;14.60;3.50;;;4.30;97.60;;;;;;5061730;28;20044;-83
2021/12/10 08:03:18;;;;;;;15.52;3.67;;;4.30;97.60;;;;;;5061198;28;20115;-83
2021/12/10 08:05:45;;;;;;;18.08;3.90;;;4.40;97.60;;;;;;5087773;28;20111;-83
2021/12/10 08:08:11;;;;;;;13.20;3.60;;;4.30;97.50;;;;;;5093107;28;20103;-84
2021/12/10 08:10:38;;;;;;;30.65;3.88;;;4.30;97.40;;;;;;5093063;28;20112;-83
2021/12/10 08:13:04;;;;;;;16.85;3.90;;;4.30;97.40;;;;;;5072486;28;20461;-83
2021/12/10 08:15:30;;;;;;;12.95;3.20;;;4.30;97.40;;;;;;5072809;28;20024;-81
2021/12/10 08:17:56;;;;;;;12.75;3.03;;;4.40;97.40;;;;;;5092768;28;20028;-80
2021/12/10 08:20:24;;;;;;;16.42;3.05;;;4.40;97.20;;;;;;5077163;28;20469;-79
2021/12/10 08:22:51;;;;;;;12.00;3.20;;;4.40;97.20;;;;;;5072658;28;20040;-79
2021/12/10 08:25:18;;;;;;;10.30;2.97;;;4.40;97.20;;;;;;5055941;28;20140;-85
2021/12/10 08:27:44;;;;;;;12.05;2.70;;;4.40;97.50;;;;;;5055754;28;20037;-82
2021/12/10 08:30:13;;;;;;;11.73;2.92;;;4.50;97.20;;;;;;5072594;28;20526;-79
2021/12/10 08:32:40;;;;;;;7.82;2.40;;;4.40;97.10;;;;;;5087827;28;20035;-81
2021/12/10 08:35:09;;;;;;;14.93;3.20;;;4.40;97.10;;;;;;5092451;28;20028;-81
2021/12/10 08:37:36;;;;;;;13.48;2.50;;;4.50;97.10;;;;;;5092154;28;20065;-81
2021/12/10 08:40:03;;;;;;;15.27;2.58;;;4.50;97.00;;;;;;5059013;28;20080;-80
2021/12/10 08:42:29;;;;;;;14.38;2.63;;;4.50;97.00;;;;;;5093660;28;20396;-81
2021/12/10 08:44:54;;;;;;;13.10;2.75;;;4.50;96.90;;;;;;5075407;28;20024;-80
2021/12/10 08:47:20;;;;;;;12.93;2.55;;;4.50;96.60;;;;;;5075235;28;20616;-81
2021/12/10 08:49:46;;;;;;;15.48;2.70;;;4.60;96.70;;;;;;5045976;28;20120;-81
2021/12/10 08:52:14;;;;;;;10.40;2.45;;;4.60;96.70;;;;;;5077539;28;20043;-80
2021/12/10 08:54:42;;;;;;;14.10;2.72;;;4.60;96.60;;;;;;5092150;28;20055;-80
2021/12/10 08:57:08;;;;;;;13.43;2.72;;;4.60;96.70;;;;;;5079356;28;20082;-82
2021/12/10 08:59:36;;;;;;;10.02;3.03;;;4.60;96.70;;;;;;5078189;28;20032;-81
2021/12/10 09:02:04;;;;;;;9.90;2.38;;;4.60;96.70;;;;;;5060805;28;20181;-83
2021/12/10 09:04:32;;;;;;;12.98;2.85;;;4.60;96.70;;;;;;5072873;28;20029;-81
2021/12/10 09:07:03;;;;;;;14.80;2.33;;;4.60;96.80;;;;;;5054460;28;20032;-81
2021/12/10 09:09:30;;;;;;;11.13;2.00;;;4.70;96.90;;;;;;5071752;28;20544;-81
2021/12/10 09:12:00;;;;;;;14.75;2.38;;;4.60;96.80;;;;;;5071523;28;20059;-81
2021/12/10 09:14:30;;;;;;;13.88;2.30;;;4.70;96.90;;;;;;5088071;28;20484;-81
2021/12/10 09:16:58;;;;;;;12.80;2.38;;;4.60;96.80;;;;;;5077506;28;20123;-81
2021/12/10 09:19:25;;;;;;;15.52;2.42;;;4.70;96.80;;;;;;5056661;28;20111;-81
2021/12/10 09:21:51;;;;;;;11.63;2.22;;;4.70;96.80;;;;;;5068191;28;20083;-82
2021/12/10 09:24:20;;;;;;;6.57;1.80;;;4.60;96.80;;;;;;5074047;28;20028;-82
2021/12/10 09:26:47;;;;;;;;;;;4.70;96.90;;;;;;5090215;28;20122;-79
2021/12/10 09:29:15;;;;;;;15.85;2.05;;;4.70;96.80;;;;;;5075118;28;19915;-81
2021/12/10 09:31:42;;;;;;;9.45;1.63;;;4.60;96.90;;;;;;5075842;28;20036;-82
2021/12/10 09:34:10;;;;;;;10.55;2.00;;;4.60;96.90;;;;;;5089194;28;20024;-87
2021/12/10 09:36:39;;;;;;;9.83;2.00;;;4.60;97.00;;;;;;5090384;28;20047;-84
2021/12/10 09:39:06;;;;;;;11.27;2.22;;;4.70;97.00;;;;;;5091372;28;20028;-81
2021/12/10 09:41:32;;;;;;;13.18;2.03;;;4.70;97.00;;;;;;5089171;28;21983;-83
2021/12/10 09:43:58;;;;;;;11.52;2.33;;;4.70;97.00;;;;;;5075530;28;20025;-79
2021/12/10 09:46:24;;;;;;;9.32;1.88;;;4.70;97.00;;;;;;5078698;28;20729;-79
2021/12/10 09:48:50;;;;;;;11.13;1.50;;;4.70;96.90;;;;;;5080543;28;20029;-81
2021/12/10 09:51:20;;;;;;;13.18;2.95;;;4.80;96.90;;;;;;5082620;28;20032;-82
2021/12/10 09:53:49;;;;;;;6.80;1.58;;;4.80;96.70;;;;;;5082375;28;20035;-79
2021/12/10 09:56:16;;;;;;;9.90;1.80;;;4.80;96.60;;;;;;5071379;28;20035;-78
2021/12/10 09:58:42;;;;;;;8.80;2.42;;;4.90;96.80;;;;;;5077905;28;20039;-78
2021/12/10 10:01:21;;;;;;;11.95;1.60;;;5.00;96.90;;;;;;5063367;28;20123;-79
2021/12/10 10:03:51;;;;;;;7.25;1.92;;;5.10;96.40;;;;;;5078989;28;20036;-78
2021/12/10 10:06:18;;;;;;;9.20;1.67;;;5.10;96.30;;;;;;5070734;28;20069;-78
2021/12/10 10:08:45;;;;;;;5.18;1.20;;;5.20;96.30;;;;;;5078296;28;20032;-79
2021/12/10 10:11:19;;;;;;;10.88;1.58;;;5.20;95.90;;;;;;5081097;28;20067;-78
2021/12/10 10:13:48;;;;;;;13.77;2.60;;;5.20;95.80;;;;;;5073618;28;20107;-78
2021/12/10 10:16:15;;;;;;;11.90;1.80;;;5.20;95.80;;;;;;5091206;28;20016;-78
2021/12/10 10:18:43;;;;;;;11.93;2.13;;;5.20;95.90;;;;;;5089506;28;20035;-78
2021/12/10 10:21:16;;;;;;;12.40;1.70;;;5.30;95.80;;;;;;5092120;28;20114;-79
2021/12/10 10:23:43;;;;;;;9.75;1.67;;;5.30;95.70;;;;;;5080908;28;20147;-78
2021/12/10 10:26:14;;;;;;;8.18;2.35;;;5.30;95.60;;;;;;5079902;28;20078;-78
2021/12/10 10:28:40;;;;;;;7.03;1.63;;;5.40;95.60;;;;;;5094874;28;20035;-79
2021/12/10 10:31:12;;;;;;;8.02;1.55;;;5.40;95.40;;;;;;5095544;28;20384;-78
2021/12/10 10:33:40;;;;;;;3.67;1.40;;;5.40;95.40;;;;;;5091463;28;20070;-77
2021/12/10 10:36:18;;;;;;;4.93;1.30;;;5.40;95.40;;;;;;5068576;28;20481;-78
2021/12/10 10:38:47;;;;;;;10.40;1.70;;;5.40;95.30;;;;;;5087391;28;20028;-78
2021/12/10 10:41:14;;;;;;;11.27;2.13;;;5.50;95.20;;;;;;5083680;28;20470;-77
2021/12/10 10:43:40;;;;;;;9.82;1.80;;;5.50;95.10;;;;;;5060254;28;20463;-77
2021/12/10 10:46:05;;;;;;;9.20;2.10;;;5.50;95.00;;;;;;5089991;28;20066;-77
2021/12/10 10:48:32;;;;;;;15.02;1.92;;;5.50;94.70;;;;;;5081754;28;20044;-78
2021/12/10 10:51:08;;;;;;;10.90;2.20;;;5.50;94.60;;;;;;5090925;28;20438;-78
2021/12/10 10:53:45;;;;;;;8.73;1.80;;;5.50;94.70;;;;;;5093844;28;20153;-77
2021/12/10 10:56:18;;;;;;;12.13;1.90;;;5.50;94.60;;;;;;5090876;28;20045;-79
2021/12/10 10:58:54;;;;;;;6.35;1.55;;;5.60;94.50;;;;;;5088595;28;20564;-79
2021/12/10 11:01:29;;;;;;;12.45;2.08;;;5.60;94.50;;;;;;5089342;28;20036;-78
2021/12/10 11:04:18;;;;;;;10.50;1.88;;;5.60;94.40;;;;;;5083762;28;20076;-78
2021/12/10 11:06:47;;;;;;;7.82;1.90;;;5.70;94.30;;;;;;5089037;28;20024;-80
2021/12/10 11:09:15;;;;;;;;;;;5.70;94.10;;;;;;5095515;28;20052;-81
2021/12/10 11:11:53;;;;;;;7.75;1.70;;;5.70;94.10;;;;;;5094749;28;19922;-81
2021/12/10 11:14:37;;;;;;;6.43;1.40;;;5.70;94.10;;;;;;5073915;28;20036;-81
2021/12/10 11:17:15;;;;;;;5.43;1.52;;;5.70;94.10;;;;;;5082585;28;20051;-82
2021/12/10 11:19:58;;;;;;;14.90;1.77;;;5.80;93.90;;;;;;5088275;28;20454;-90
2021/12/10 11:22:24;;;;;;;8.48;1.45;;;5.80;94.00;;;;;;5086719;28;20381;-85
2021/12/10 11:24:56;;;;;;;9.32;1.63;;;5.80;93.90;;;;;;5091318;28;20465;-85
2021/12/10 11:27:24;;;;;;;12.18;2.10;;;5.80;93.80;;;;;;5093366;28;20043;-83
2021/12/10 11:30:10;;;;;;;5.50;1.30;;;5.80;93.80;;;;;;5086446;28;20038;-83
2021/12/10 11:32:56;;;;;;;7.97;1.90;;;5.90;93.70;;;;;;5077202;28;20069;-84
2021/12/10 11:35:32;;;;;;;6.57;1.88;;;5.90;93.70;;;;;;5089279;28;20028;-87
2021/12/10 11:38:17;;;;;;;8.68;1.55;;;5.90;93.80;;;;;;5084405;28;20468;-83
2021/12/10 11:40:53;;;;;;;8.38;1.35;;;5.90;93.80;;;;;;5085784;28;20029;-85
2021/12/10 11:49:00;;;;;;;12.02;2.38;;;5.90;94.00;;;;;;5079822;28;20511;-84
2021/12/10 11:51:58;;;;;;;11.25;1.80;;;5.90;94.20;;;;;;5083287;28;20032;-85
2021/12/10 11:54:37;;;;;;;8.35;1.75;;;5.70;94.60;;;;;;5058379;28;20135;-84
2021/12/10 11:57:14;;;;;;;6.45;1.80;;;5.60;94.90;;;;;;5087031;28;20100;-84
2021/12/10 11:59:49;;;;;;;7.20;1.65;;;5.60;95.20;;;;;;5082621;28;20573;-84
2021/12/10 12:02:25;;;;;;;7.07;1.52;;;5.60;95.40;;;;;;5081365;28;20047;-85
2021/12/10 12:04:55;;;;;;;7.90;2.10;;;5.50;95.40;;;;;;5076526;28;20020;-84
2021/12/10 12:07:36;;;;;;;9.98;2.13;;;5.50;95.60;;;;;;5082464;28;20034;-84
2021/12/10 12:10:21;;;;;;;8.65;1.98;;;5.50;95.70;;;;;;5095693;28;20028;-85
2021/12/10 12:13:12;;;;;;;8.40;1.88;;;5.40;95.70;;;;;;5078999;28;20046;-85
2021/12/10 12:15:41;;;;;;;8.57;1.80;;;5.50;95.90;;;;;;5095946;28;20020;-85
2021/12/10 12:18:10;;;;;;;6.07;1.80;;;5.50;96.30;;;;;;5081177;28;20020;-82
2021/12/10 12:20:40;;;;;;;6.00;1.85;;;5.50;96.10;;;;;;5102447;28;20364;-84
2021/12/10 12:26:01;;;;;;;6.18;1.60;;;5.40;96.20;;;;;;5114976;28;20043;-88
2021/12/10 12:28:28;;;;;;;8.77;1.67;;;5.50;96.30;;;;;;5096492;28;20032;-88
2021/12/10 12:31:10;;;;;;;9.25;1.98;;;5.50;96.40;;;;;;5114768;28;20821;-88
2021/12/10 12:33:57;;;;;;;6.28;1.50;;;5.50;96.50;;;;;;5098043;28;20384;-88
2021/12/10 12:36:25;;;;;;;8.98;1.63;;;5.50;96.60;;;;;;5112979;28;20702;-88
2021/12/10 12:38:52;;;;;;;7.88;1.58;;;5.50;96.50;;;;;;5076309;28;20028;-84
2021/12/10 12:41:20;;;;;;;7.47;1.80;;;5.50;96.50;;;;;;5095741;28;20031;-83
2021/12/10 12:44:06;;;;;;;7.53;2.00;;;5.50;96.50;;;;;;5085122;28;20055;-83
2021/12/10 12:46:31;;;;;;;6.65;1.75;;;5.50;96.50;;;;;;5078280;28;20032;-82
2021/12/10 12:49:01;;;;;;;5.45;1.77;;;5.40;96.50;;;;;;5093433;28;20076;-82
2021/12/10 12:51:27;;;;;;;6.10;1.65;;;5.40;96.50;;;;;;5085757;28;20024;-82
2021/12/10 12:53:55;;;;;;;8.40;1.98;;;5.30;96.50;;;;;;5081529;28;20036;-81
2021/12/10 12:56:26;;;;;;;5.50;1.90;;;5.20;96.70;;;;;;5068065;28;20036;-82
2021/12/10 12:59:05;;;;;;;7.45;1.85;;;5.20;96.70;;;;;;5112406;28;20034;-82
2021/12/10 13:01:35;;;;;;;;;;;5.20;96.80;;;;;;5073546;28;20404;-82
2021/12/10 13:04:06;;;;;;;9.10;2.10;;;5.20;96.80;;;;;;5104952;28;19912;-82
2021/12/10 13:06:38;;;;;;;7.25;2.15;;;5.10;96.80;;;;;;5113950;28;20031;-83
2021/12/10 13:09:06;;;;;;;8.25;2.53;;;5.10;97.30;;;;;;5111457;28;20051;-82
2021/12/10 13:11:52;;;;;;;7.70;2.25;;;5.10;97.00;;;;;;5093639;28;20036;-82
2021/12/10 13:14:21;;;;;;;7.72;2.20;;;5.00;97.10;;;;;;5075119;28;20031;-81
2021/12/10 13:17:09;;;;;;;7.43;2.40;;;5.00;97.30;;;;;;5107396;28;20376;-81
2021/12/10 13:19:35;;;;;;;6.80;2.00;;;5.00;97.40;;;;;;5109012;28;20028;-81
2021/12/10 13:22:06;;;;;;;5.65;2.22;;;4.90;97.50;;;;;;5094876;28;20698;-81
2021/12/10 13:24:32;;;;;;;6.13;2.10;;;5.00;97.60;;;;;;5111430;28;20032;-82